sensor_id;sensor_type;location;lat;lon;timestamp;P1;durP1;ratioP1;P2;durP2;ratioP2
43835;SDS011;39345;43.964;25.340;2022-07-09T00:02:08;9.13;;;5.20;;
43835;SDS011;39345;43.964;25.340;2022-07-09T00:04:35;7.65;;;5.30;;
43835;SDS011;39345;43.964;25.340;2022-07-09T00:07:03;6.97;;;5.28;;
43835;SDS011;39345;43.964;25.340;2022-07-09T00:09:31;6.57;;;5.40;;
43835;SDS011;39345;43.964;25.340;2022-07-09T00:11:58;8.27;;;5.57;;
43835;SDS011;39345;43.964;25.340;2022-07-09T00:14:26;8.40;;;5.50;;
43835;SDS011;39345;43.964;25.340;2022-07-09T00:16:53;8.45;;;5.57;;
43835;SDS011;39345;43.964;25.340;2022-07-09T00:19:21;8.05;;;5.47;;
43835;SDS011;39345;43.964;25.340;2022-07-09T00:21:48;8.43;;;5.35;;
43835;SDS011;39345;43.964;25.340;2022-07-09T00:24:16;7.70;;;5.38;;
43835;SDS011;39345;43.964;25.340;2022-07-09T00:26:43;6.18;;;5.40;;
43835;SDS011;39345;43.964;25.340;2022-07-09T00:29:11;5.82;;;5.22;;
43835;SDS011;39345;43.964;25.340;2022-07-09T00:31:38;7.53;;;5.38;;
43835;SDS011;39345;43.964;25.340;2022-07-09T00:34:06;9.68;;;6.10;;
43835;SDS011;39345;43.964;25.340;2022-07-09T00:36:33;7.07;;;5.07;;
43835;SDS011;39345;43.964;25.340;2022-07-09T00:39:01;7.47;;;5.60;;
43835;SDS011;39345;43.964;25.340;2022-07-09T00:41:28;10.10;;;8.10;;
43835;SDS011;39345;43.964;25.340;2022-07-09T00:43:56;6.60;;;5.65;;
43835;SDS011;39345;43.964;25.340;2022-07-09T00:46:23;10.20;;;6.85;;
43835;SDS011;39345;43.964;25.340;2022-07-09T00:48:51;7.18;;;5.93;;
43835;SDS011;39345;43.964;25.340;2022-07-09T00:51:18;8.60;;;6.05;;
43835;SDS011;39345;43.964;25.340;2022-07-09T00:53:46;7.80;;;6.28;;
43835;SDS011;39345;43.964;25.340;2022-07-09T00:56:15;9.43;;;7.70;;
43835;SDS011;39345;43.964;25.340;2022-07-09T00:58:44;8.75;;;6.95;;
43835;SDS011;39345;43.964;25.340;2022-07-09T01:01:12;7.18;;;6.07;;
43835;SDS011;39345;43.964;25.340;2022-07-09T01:03:39;10.35;;;7.10;;
43835;SDS011;39345;43.964;25.340;2022-07-09T01:06:08;9.65;;;6.50;;
43835;SDS011;39345;43.964;25.340;2022-07-09T01:08:35;9.77;;;7.60;;
43835;SDS011;39345;43.964;25.340;2022-07-09T01:11:03;9.20;;;7.20;;
43835;SDS011;39345;43.964;25.340;2022-07-09T01:13:30;8.38;;;6.57;;
43835;SDS011;39345;43.964;25.340;2022-07-09T01:15:58;9.15;;;6.47;;
43835;SDS011;39345;43.964;25.340;2022-07-09T01:18:25;8.70;;;6.50;;
43835;SDS011;39345;43.964;25.340;2022-07-09T01:20:53;8.45;;;6.53;;
43835;SDS011;39345;43.964;25.340;2022-07-09T01:23:20;8.75;;;6.20;;
43835;SDS011;39345;43.964;25.340;2022-07-09T01:25:48;7.40;;;5.78;;
43835;SDS011;39345;43.964;25.340;2022-07-09T01:28:15;10.00;;;6.45;;
43835;SDS011;39345;43.964;25.340;2022-07-09T01:30:43;8.40;;;5.80;;
43835;SDS011;39345;43.964;25.340;2022-07-09T01:33:10;9.13;;;6.75;;
43835;SDS011;39345;43.964;25.340;2022-07-09T01:35:39;9.18;;;6.50;;
43835;SDS011;39345;43.964;25.340;2022-07-09T01:38:06;8.90;;;6.65;;
43835;SDS011;39345;43.964;25.340;2022-07-09T01:40:34;8.23;;;7.15;;
43835;SDS011;39345;43.964;25.340;2022-07-09T01:43:01;9.60;;;6.10;;
43835;SDS011;39345;43.964;25.340;2022-07-09T01:45:29;10.07;;;6.93;;
43835;SDS011;39345;43.964;25.340;2022-07-09T01:47:56;8.73;;;6.72;;
43835;SDS011;39345;43.964;25.340;2022-07-09T01:50:24;8.80;;;7.10;;
43835;SDS011;39345;43.964;25.340;2022-07-09T01:52:51;10.55;;;7.18;;
43835;SDS011;39345;43.964;25.340;2022-07-09T01:55:19;7.07;;;6.38;;
43835;SDS011;39345;43.964;25.340;2022-07-09T01:57:46;8.60;;;7.18;;
43835;SDS011;39345;43.964;25.340;2022-07-09T02:00:14;13.20;;;8.10;;
43835;SDS011;39345;43.964;25.340;2022-07-09T02:02:41;8.63;;;7.45;;
43835;SDS011;39345;43.964;25.340;2022-07-09T02:05:09;10.13;;;8.80;;
43835;SDS011;39345;43.964;25.340;2022-07-09T02:07:36;9.85;;;7.30;;
43835;SDS011;39345;43.964;25.340;2022-07-09T02:10:04;8.40;;;7.57;;
43835;SDS011;39345;43.964;25.340;2022-07-09T02:12:32;8.13;;;7.32;;
43835;SDS011;39345;43.964;25.340;2022-07-09T02:14:59;9.98;;;7.28;;
43835;SDS011;39345;43.964;25.340;2022-07-09T02:17:27;9.10;;;7.15;;
43835;SDS011;39345;43.964;25.340;2022-07-09T02:19:54;8.70;;;7.63;;
43835;SDS011;39345;43.964;25.340;2022-07-09T02:22:22;7.97;;;7.18;;
43835;SDS011;39345;43.964;25.340;2022-07-09T02:24:49;11.38;;;7.32;;
43835;SDS011;39345;43.964;25.340;2022-07-09T02:27:17;8.73;;;6.70;;
43835;SDS011;39345;43.964;25.340;2022-07-09T02:29:44;7.70;;;6.63;;
43835;SDS011;39345;43.964;25.340;2022-07-09T02:32:11;7.95;;;7.15;;
43835;SDS011;39345;43.964;25.340;2022-07-09T02:34:39;7.18;;;6.47;;
43835;SDS011;39345;43.964;25.340;2022-07-09T02:37:07;8.48;;;7.25;;
43835;SDS011;39345;43.964;25.340;2022-07-09T02:39:35;8.40;;;7.45;;
43835;SDS011;39345;43.964;25.340;2022-07-09T02:42:02;8.35;;;7.00;;
43835;SDS011;39345;43.964;25.340;2022-07-09T02:44:30;10.40;;;6.53;;
43835;SDS011;39345;43.964;25.340;2022-07-09T02:46:57;8.00;;;7.20;;
43835;SDS011;39345;43.964;25.340;2022-07-09T02:49:25;7.85;;;6.75;;
43835;SDS011;39345;43.964;25.340;2022-07-09T02:51:53;8.52;;;7.10;;
43835;SDS011;39345;43.964;25.340;2022-07-09T02:54:24;8.52;;;7.63;;
43835;SDS011;39345;43.964;25.340;2022-07-09T02:56:51;10.30;;;7.50;;
43835;SDS011;39345;43.964;25.340;2022-07-09T02:59:19;8.90;;;7.18;;
43835;SDS011;39345;43.964;25.340;2022-07-09T03:01:47;8.07;;;6.85;;
43835;SDS011;39345;43.964;25.340;2022-07-09T03:04:14;11.95;;;9.10;;
43835;SDS011;39345;43.964;25.340;2022-07-09T03:06:42;12.82;;;8.57;;
43835;SDS011;39345;43.964;25.340;2022-07-09T03:09:10;11.23;;;7.78;;
43835;SDS011;39345;43.964;25.340;2022-07-09T03:11:37;7.15;;;6.45;;
43835;SDS011;39345;43.964;25.340;2022-07-09T03:14:05;11.85;;;8.05;;
43835;SDS011;39345;43.964;25.340;2022-07-09T03:16:32;7.90;;;7.03;;
43835;SDS011;39345;43.964;25.340;2022-07-09T03:19:00;12.93;;;8.90;;
43835;SDS011;39345;43.964;25.340;2022-07-09T03:21:27;11.55;;;6.88;;
43835;SDS011;39345;43.964;25.340;2022-07-09T03:23:55;11.68;;;8.20;;
43835;SDS011;39345;43.964;25.340;2022-07-09T03:26:22;12.73;;;8.55;;
43835;SDS011;39345;43.964;25.340;2022-07-09T03:28:49;10.93;;;8.55;;
43835;SDS011;39345;43.964;25.340;2022-07-09T03:31:17;14.18;;;10.32;;
43835;SDS011;39345;43.964;25.340;2022-07-09T03:33:45;10.18;;;8.55;;
43835;SDS011;39345;43.964;25.340;2022-07-09T03:36:19;12.18;;;8.10;;
43835;SDS011;39345;43.964;25.340;2022-07-09T03:38:46;10.80;;;8.20;;
43835;SDS011;39345;43.964;25.340;2022-07-09T03:41:14;16.25;;;11.88;;
43835;SDS011;39345;43.964;25.340;2022-07-09T03:43:41;12.15;;;8.35;;
43835;SDS011;39345;43.964;25.340;2022-07-09T03:46:08;10.73;;;8.20;;
43835;SDS011;39345;43.964;25.340;2022-07-09T03:48:36;11.25;;;8.90;;
43835;SDS011;39345;43.964;25.340;2022-07-09T03:51:04;12.27;;;7.60;;
43835;SDS011;39345;43.964;25.340;2022-07-09T03:53:31;11.93;;;9.00;;
43835;SDS011;39345;43.964;25.340;2022-07-09T03:55:59;12.73;;;11.40;;
43835;SDS011;39345;43.964;25.340;2022-07-09T03:58:26;11.65;;;8.82;;
43835;SDS011;39345;43.964;25.340;2022-07-09T04:00:54;11.25;;;8.55;;
43835;SDS011;39345;43.964;25.340;2022-07-09T04:03:21;10.90;;;7.57;;
43835;SDS011;39345;43.964;25.340;2022-07-09T04:05:49;9.02;;;7.32;;
43835;SDS011;39345;43.964;25.340;2022-07-09T04:08:16;12.50;;;7.63;;
43835;SDS011;39345;43.964;25.340;2022-07-09T04:10:44;12.52;;;9.02;;
43835;SDS011;39345;43.964;25.340;2022-07-09T04:13:11;12.27;;;9.27;;
43835;SDS011;39345;43.964;25.340;2022-07-09T04:15:40;9.40;;;7.90;;
43835;SDS011;39345;43.964;25.340;2022-07-09T04:18:07;12.25;;;8.20;;
43835;SDS011;39345;43.964;25.340;2022-07-09T04:20:35;13.02;;;8.13;;
43835;SDS011;39345;43.964;25.340;2022-07-09T04:23:02;9.68;;;7.70;;
43835;SDS011;39345;43.964;25.340;2022-07-09T04:25:30;14.80;;;7.70;;
43835;SDS011;39345;43.964;25.340;2022-07-09T04:27:57;10.77;;;7.47;;
43835;SDS011;39345;43.964;25.340;2022-07-09T04:30:28;16.35;;;13.25;;
43835;SDS011;39345;43.964;25.340;2022-07-09T04:32:56;15.38;;;10.40;;
43835;SDS011;39345;43.964;25.340;2022-07-09T04:35:24;8.10;;;7.30;;
43835;SDS011;39345;43.964;25.340;2022-07-09T04:37:51;15.30;;;12.07;;
43835;SDS011;39345;43.964;25.340;2022-07-09T04:40:18;12.00;;;10.57;;
43835;SDS011;39345;43.964;25.340;2022-07-09T04:42:46;14.40;;;10.63;;
43835;SDS011;39345;43.964;25.340;2022-07-09T04:45:13;8.00;;;6.97;;
43835;SDS011;39345;43.964;25.340;2022-07-09T04:47:41;12.20;;;7.88;;
43835;SDS011;39345;43.964;25.340;2022-07-09T04:50:09;18.58;;;13.40;;
43835;SDS011;39345;43.964;25.340;2022-07-09T04:52:37;9.63;;;8.57;;
43835;SDS011;39345;43.964;25.340;2022-07-09T04:55:07;13.85;;;11.75;;
43835;SDS011;39345;43.964;25.340;2022-07-09T04:57:36;9.18;;;6.85;;
43835;SDS011;39345;43.964;25.340;2022-07-09T05:00:04;8.07;;;6.07;;
43835;SDS011;39345;43.964;25.340;2022-07-09T05:02:32;9.80;;;7.95;;
43835;SDS011;39345;43.964;25.340;2022-07-09T05:04:59;13.45;;;6.35;;
43835;SDS011;39345;43.964;25.340;2022-07-09T05:07:27;10.13;;;6.55;;
43835;SDS011;39345;43.964;25.340;2022-07-09T05:09:54;13.38;;;9.95;;
43835;SDS011;39345;43.964;25.340;2022-07-09T05:12:22;19.52;;;14.35;;
43835;SDS011;39345;43.964;25.340;2022-07-09T05:14:49;19.33;;;13.27;;
43835;SDS011;39345;43.964;25.340;2022-07-09T05:17:17;10.52;;;7.30;;
43835;SDS011;39345;43.964;25.340;2022-07-09T05:19:45;15.25;;;11.55;;
43835;SDS011;39345;43.964;25.340;2022-07-09T05:22:12;8.90;;;6.72;;
43835;SDS011;39345;43.964;25.340;2022-07-09T05:24:40;20.27;;;12.38;;
43835;SDS011;39345;43.964;25.340;2022-07-09T05:27:08;11.43;;;6.47;;
43835;SDS011;39345;43.964;25.340;2022-07-09T05:29:36;21.90;;;11.95;;
43835;SDS011;39345;43.964;25.340;2022-07-09T05:32:04;9.85;;;4.53;;
43835;SDS011;39345;43.964;25.340;2022-07-09T05:34:31;6.88;;;4.82;;
43835;SDS011;39345;43.964;25.340;2022-07-09T05:36:59;12.40;;;6.95;;
43835;SDS011;39345;43.964;25.340;2022-07-09T05:39:26;5.88;;;4.95;;
43835;SDS011;39345;43.964;25.340;2022-07-09T05:41:54;6.07;;;4.70;;
43835;SDS011;39345;43.964;25.340;2022-07-09T05:44:21;5.63;;;4.15;;
43835;SDS011;39345;43.964;25.340;2022-07-09T05:46:50;6.35;;;4.78;;
43835;SDS011;39345;43.964;25.340;2022-07-09T05:49:18;5.43;;;3.75;;
43835;SDS011;39345;43.964;25.340;2022-07-09T05:51:45;5.90;;;5.13;;
43835;SDS011;39345;43.964;25.340;2022-07-09T05:54:13;6.10;;;4.55;;
43835;SDS011;39345;43.964;25.340;2022-07-09T05:56:40;33.28;;;29.15;;
43835;SDS011;39345;43.964;25.340;2022-07-09T05:59:08;30.73;;;25.50;;
43835;SDS011;39345;43.964;25.340;2022-07-09T06:01:36;8.52;;;4.38;;
43835;SDS011;39345;43.964;25.340;2022-07-09T06:04:06;5.85;;;3.38;;
43835;SDS011;39345;43.964;25.340;2022-07-09T06:06:34;6.93;;;4.18;;
43835;SDS011;39345;43.964;25.340;2022-07-09T06:09:02;4.45;;;3.83;;
43835;SDS011;39345;43.964;25.340;2022-07-09T06:11:29;4.63;;;3.08;;
43835;SDS011;39345;43.964;25.340;2022-07-09T06:13:57;4.82;;;3.47;;
43835;SDS011;39345;43.964;25.340;2022-07-09T06:16:24;7.80;;;4.93;;
43835;SDS011;39345;43.964;25.340;2022-07-09T06:18:52;14.25;;;10.57;;
43835;SDS011;39345;43.964;25.340;2022-07-09T06:21:20;8.50;;;4.63;;
43835;SDS011;39345;43.964;25.340;2022-07-09T06:23:47;7.00;;;4.32;;
43835;SDS011;39345;43.964;25.340;2022-07-09T06:26:15;5.53;;;3.72;;
43835;SDS011;39345;43.964;25.340;2022-07-09T06:28:42;7.50;;;5.78;;
43835;SDS011;39345;43.964;25.340;2022-07-09T06:31:10;9.75;;;8.65;;
43835;SDS011;39345;43.964;25.340;2022-07-09T06:33:37;8.32;;;5.10;;
43835;SDS011;39345;43.964;25.340;2022-07-09T06:36:05;12.65;;;8.45;;
43835;SDS011;39345;43.964;25.340;2022-07-09T06:38:32;16.08;;;11.15;;
43835;SDS011;39345;43.964;25.340;2022-07-09T06:41:20;9.63;;;6.75;;
43835;SDS011;39345;43.964;25.340;2022-07-09T06:43:47;7.55;;;5.82;;
43835;SDS011;39345;43.964;25.340;2022-07-09T06:46:15;5.93;;;4.65;;
43835;SDS011;39345;43.964;25.340;2022-07-09T06:48:43;5.72;;;5.00;;
43835;SDS011;39345;43.964;25.340;2022-07-09T06:51:10;10.13;;;8.52;;
43835;SDS011;39345;43.964;25.340;2022-07-09T06:53:37;7.07;;;5.53;;
43835;SDS011;39345;43.964;25.340;2022-07-09T06:56:05;7.78;;;5.00;;
43835;SDS011;39345;43.964;25.340;2022-07-09T06:58:33;9.07;;;7.28;;
43835;SDS011;39345;43.964;25.340;2022-07-09T07:01:01;10.07;;;6.25;;
43835;SDS011;39345;43.964;25.340;2022-07-09T07:03:29;8.13;;;5.18;;
43835;SDS011;39345;43.964;25.340;2022-07-09T07:05:56;7.60;;;6.03;;
43835;SDS011;39345;43.964;25.340;2022-07-09T07:08:24;6.35;;;5.75;;
43835;SDS011;39345;43.964;25.340;2022-07-09T07:10:51;9.23;;;5.53;;
43835;SDS011;39345;43.964;25.340;2022-07-09T07:13:19;6.65;;;4.57;;
43835;SDS011;39345;43.964;25.340;2022-07-09T07:15:46;6.15;;;4.13;;
43835;SDS011;39345;43.964;25.340;2022-07-09T07:18:15;8.40;;;4.65;;
43835;SDS011;39345;43.964;25.340;2022-07-09T07:20:43;15.48;;;12.00;;
43835;SDS011;39345;43.964;25.340;2022-07-09T07:23:11;13.80;;;10.05;;
43835;SDS011;39345;43.964;25.340;2022-07-09T07:25:39;7.82;;;4.78;;
43835;SDS011;39345;43.964;25.340;2022-07-09T07:28:06;7.93;;;6.40;;
43835;SDS011;39345;43.964;25.340;2022-07-09T07:30:34;8.45;;;5.65;;
43835;SDS011;39345;43.964;25.340;2022-07-09T07:33:02;9.75;;;7.03;;
43835;SDS011;39345;43.964;25.340;2022-07-09T07:35:30;9.57;;;7.05;;
43835;SDS011;39345;43.964;25.340;2022-07-09T07:37:57;7.22;;;4.45;;
43835;SDS011;39345;43.964;25.340;2022-07-09T07:40:28;10.40;;;6.68;;
43835;SDS011;39345;43.964;25.340;2022-07-09T07:42:55;4.78;;;3.67;;
43835;SDS011;39345;43.964;25.340;2022-07-09T07:45:22;4.90;;;4.28;;
43835;SDS011;39345;43.964;25.340;2022-07-09T07:47:50;6.00;;;5.40;;
43835;SDS011;39345;43.964;25.340;2022-07-09T07:50:20;5.47;;;4.28;;
43835;SDS011;39345;43.964;25.340;2022-07-09T07:52:47;5.20;;;3.42;;
43835;SDS011;39345;43.964;25.340;2022-07-09T07:55:15;6.15;;;3.30;;
43835;SDS011;39345;43.964;25.340;2022-07-09T07:57:42;5.32;;;3.67;;
43835;SDS011;39345;43.964;25.340;2022-07-09T08:00:10;6.90;;;4.00;;
43835;SDS011;39345;43.964;25.340;2022-07-09T08:02:38;6.10;;;3.33;;
43835;SDS011;39345;43.964;25.340;2022-07-09T08:05:06;5.00;;;3.05;;
43835;SDS011;39345;43.964;25.340;2022-07-09T08:07:33;6.45;;;2.97;;
43835;SDS011;39345;43.964;25.340;2022-07-09T08:10:01;5.60;;;3.00;;
43835;SDS011;39345;43.964;25.340;2022-07-09T08:12:28;3.67;;;2.88;;
43835;SDS011;39345;43.964;25.340;2022-07-09T08:14:56;4.97;;;3.10;;
43835;SDS011;39345;43.964;25.340;2022-07-09T08:17:23;4.82;;;2.95;;
43835;SDS011;39345;43.964;25.340;2022-07-09T08:19:51;5.90;;;3.60;;
43835;SDS011;39345;43.964;25.340;2022-07-09T08:22:19;3.55;;;2.80;;
43835;SDS011;39345;43.964;25.340;2022-07-09T08:24:46;3.55;;;3.05;;
43835;SDS011;39345;43.964;25.340;2022-07-09T08:27:14;5.25;;;2.70;;
43835;SDS011;39345;43.964;25.340;2022-07-09T08:29:41;4.97;;;2.85;;
43835;SDS011;39345;43.964;25.340;2022-07-09T08:32:09;5.80;;;2.83;;
43835;SDS011;39345;43.964;25.340;2022-07-09T08:34:37;5.18;;;3.70;;
43835;SDS011;39345;43.964;25.340;2022-07-09T08:37:04;5.22;;;3.30;;
43835;SDS011;39345;43.964;25.340;2022-07-09T08:39:32;7.20;;;6.10;;
43835;SDS011;39345;43.964;25.340;2022-07-09T08:41:59;10.40;;;6.43;;
43835;SDS011;39345;43.964;25.340;2022-07-09T08:44:28;8.32;;;4.18;;
43835;SDS011;39345;43.964;25.340;2022-07-09T08:46:59;5.03;;;4.20;;
43835;SDS011;39345;43.964;25.340;2022-07-09T08:49:28;8.32;;;3.50;;
43835;SDS011;39345;43.964;25.340;2022-07-09T08:51:58;5.63;;;3.10;;
43835;SDS011;39345;43.964;25.340;2022-07-09T08:54:26;6.43;;;3.90;;
43835;SDS011;39345;43.964;25.340;2022-07-09T08:56:55;5.68;;;3.00;;
43835;SDS011;39345;43.964;25.340;2022-07-09T08:59:22;3.70;;;2.80;;
43835;SDS011;39345;43.964;25.340;2022-07-09T09:01:49;5.30;;;2.75;;
43835;SDS011;39345;43.964;25.340;2022-07-09T09:04:17;5.72;;;2.75;;
43835;SDS011;39345;43.964;25.340;2022-07-09T09:06:45;5.03;;;2.72;;
43835;SDS011;39345;43.964;25.340;2022-07-09T09:09:17;8.60;;;3.38;;
43835;SDS011;39345;43.964;25.340;2022-07-09T09:11:46;6.70;;;4.47;;
43835;SDS011;39345;43.964;25.340;2022-07-09T09:14:22;7.13;;;2.97;;
43835;SDS011;39345;43.964;25.340;2022-07-09T09:16:52;3.08;;;2.53;;
43835;SDS011;39345;43.964;25.340;2022-07-09T09:19:21;4.28;;;3.22;;
43835;SDS011;39345;43.964;25.340;2022-07-09T09:21:50;7.50;;;4.90;;
43835;SDS011;39345;43.964;25.340;2022-07-09T09:24:24;6.70;;;3.83;;
43835;SDS011;39345;43.964;25.340;2022-07-09T09:26:55;4.30;;;3.08;;
43835;SDS011;39345;43.964;25.340;2022-07-09T09:29:23;4.65;;;3.17;;
43835;SDS011;39345;43.964;25.340;2022-07-09T09:31:51;8.82;;;3.40;;
43835;SDS011;39345;43.964;25.340;2022-07-09T09:34:19;5.13;;;3.55;;
43835;SDS011;39345;43.964;25.340;2022-07-09T09:36:47;6.57;;;2.70;;
43835;SDS011;39345;43.964;25.340;2022-07-09T09:39:18;3.33;;;2.65;;
43835;SDS011;39345;43.964;25.340;2022-07-09T09:41:46;5.68;;;3.65;;
43835;SDS011;39345;43.964;25.340;2022-07-09T09:44:15;5.30;;;3.42;;
43835;SDS011;39345;43.964;25.340;2022-07-09T09:46:43;5.95;;;3.38;;
43835;SDS011;39345;43.964;25.340;2022-07-09T09:49:12;6.50;;;3.67;;
43835;SDS011;39345;43.964;25.340;2022-07-09T09:51:49;5.20;;;2.90;;
43835;SDS011;39345;43.964;25.340;2022-07-09T09:54:18;4.43;;;3.40;;
43835;SDS011;39345;43.964;25.340;2022-07-09T09:56:47;4.90;;;3.15;;
43835;SDS011;39345;43.964;25.340;2022-07-09T09:59:15;3.80;;;2.28;;
43835;SDS011;39345;43.964;25.340;2022-07-09T10:01:43;5.35;;;2.80;;
43835;SDS011;39345;43.964;25.340;2022-07-09T10:04:12;5.03;;;2.50;;
43835;SDS011;39345;43.964;25.340;2022-07-09T10:06:41;3.03;;;2.50;;
43835;SDS011;39345;43.964;25.340;2022-07-09T10:09:11;5.95;;;2.65;;
43835;SDS011;39345;43.964;25.340;2022-07-09T10:14:06;4.05;;;2.60;;
43835;SDS011;39345;43.964;25.340;2022-07-09T10:16:35;5.72;;;2.70;;
43835;SDS011;39345;43.964;25.340;2022-07-09T10:19:03;3.70;;;3.28;;
43835;SDS011;39345;43.964;25.340;2022-07-09T10:21:32;5.60;;;3.13;;
43835;SDS011;39345;43.964;25.340;2022-07-09T10:23:59;6.45;;;2.35;;
43835;SDS011;39345;43.964;25.340;2022-07-09T10:26:43;5.75;;;2.78;;
43835;SDS011;39345;43.964;25.340;2022-07-09T10:29:21;6.50;;;3.30;;
43835;SDS011;39345;43.964;25.340;2022-07-09T10:31:49;4.65;;;2.90;;
43835;SDS011;39345;43.964;25.340;2022-07-09T10:36:57;3.30;;;3.00;;
43835;SDS011;39345;43.964;25.340;2022-07-09T10:39:24;3.38;;;2.53;;
43835;SDS011;39345;43.964;25.340;2022-07-09T10:44:27;4.93;;;2.30;;
43835;SDS011;39345;43.964;25.340;2022-07-09T10:46:56;3.35;;;2.30;;
43835;SDS011;39345;43.964;25.340;2022-07-09T10:49:27;6.55;;;2.72;;
43835;SDS011;39345;43.964;25.340;2022-07-09T10:51:55;5.45;;;2.45;;
43835;SDS011;39345;43.964;25.340;2022-07-09T10:54:32;3.58;;;2.50;;
43835;SDS011;39345;43.964;25.340;2022-07-09T10:56:59;2.63;;;2.20;;
43835;SDS011;39345;43.964;25.340;2022-07-09T10:59:27;4.88;;;2.88;;
43835;SDS011;39345;43.964;25.340;2022-07-09T11:01:54;3.60;;;2.60;;
43835;SDS011;39345;43.964;25.340;2022-07-09T11:04:23;2.53;;;2.33;;
43835;SDS011;39345;43.964;25.340;2022-07-09T11:06:57;5.20;;;2.30;;
43835;SDS011;39345;43.964;25.340;2022-07-09T11:09:25;5.50;;;2.80;;
43835;SDS011;39345;43.964;25.340;2022-07-09T11:11:56;3.80;;;2.65;;
43835;SDS011;39345;43.964;25.340;2022-07-09T11:14:24;4.28;;;2.60;;
43835;SDS011;39345;43.964;25.340;2022-07-09T11:16:53;3.55;;;2.80;;
43835;SDS011;39345;43.964;25.340;2022-07-09T11:19:29;4.35;;;2.50;;
43835;SDS011;39345;43.964;25.340;2022-07-09T11:22:00;3.53;;;2.50;;
43835;SDS011;39345;43.964;25.340;2022-07-09T11:24:30;6.00;;;2.70;;
43835;SDS011;39345;43.964;25.340;2022-07-09T11:27:05;3.33;;;2.40;;
43835;SDS011;39345;43.964;25.340;2022-07-09T11:29:33;4.47;;;2.63;;
43835;SDS011;39345;43.964;25.340;2022-07-09T11:32:00;4.45;;;2.95;;
43835;SDS011;39345;43.964;25.340;2022-07-09T11:34:28;4.53;;;2.58;;
43835;SDS011;39345;43.964;25.340;2022-07-09T11:36:57;4.68;;;3.58;;
43835;SDS011;39345;43.964;25.340;2022-07-09T11:39:25;5.18;;;3.50;;
43835;SDS011;39345;43.964;25.340;2022-07-09T11:41:54;2.67;;;2.45;;
43835;SDS011;39345;43.964;25.340;2022-07-09T11:44:29;4.30;;;2.90;;
43835;SDS011;39345;43.964;25.340;2022-07-09T11:47:03;3.70;;;3.40;;
43835;SDS011;39345;43.964;25.340;2022-07-09T11:52:15;2.70;;;2.50;;
43835;SDS011;39345;43.964;25.340;2022-07-09T11:57:31;4.07;;;2.80;;
43835;SDS011;39345;43.964;25.340;2022-07-09T11:59:59;3.88;;;2.90;;
43835;SDS011;39345;43.964;25.340;2022-07-09T12:02:30;3.80;;;2.55;;
43835;SDS011;39345;43.964;25.340;2022-07-09T12:04:59;4.90;;;3.05;;
43835;SDS011;39345;43.964;25.340;2022-07-09T12:07:27;6.70;;;3.00;;
43835;SDS011;39345;43.964;25.340;2022-07-09T12:09:58;4.47;;;2.85;;
43835;SDS011;39345;43.964;25.340;2022-07-09T12:12:26;3.78;;;3.15;;
43835;SDS011;39345;43.964;25.340;2022-07-09T12:14:54;3.55;;;2.63;;
43835;SDS011;39345;43.964;25.340;2022-07-09T12:17:25;4.53;;;2.92;;
43835;SDS011;39345;43.964;25.340;2022-07-09T12:19:54;4.10;;;2.70;;
43835;SDS011;39345;43.964;25.340;2022-07-09T12:22:21;3.47;;;2.60;;
43835;SDS011;39345;43.964;25.340;2022-07-09T12:24:52;4.07;;;3.25;;
43835;SDS011;39345;43.964;25.340;2022-07-09T12:27:20;4.22;;;2.63;;
43835;SDS011;39345;43.964;25.340;2022-07-09T12:29:49;4.47;;;3.13;;
43835;SDS011;39345;43.964;25.340;2022-07-09T12:32:17;3.97;;;2.70;;
43835;SDS011;39345;43.964;25.340;2022-07-09T12:34:45;5.55;;;2.92;;
43835;SDS011;39345;43.964;25.340;2022-07-09T12:37:13;5.78;;;3.70;;
43835;SDS011;39345;43.964;25.340;2022-07-09T12:39:40;4.78;;;3.30;;
43835;SDS011;39345;43.964;25.340;2022-07-09T12:42:16;3.45;;;3.00;;
43835;SDS011;39345;43.964;25.340;2022-07-09T12:44:44;6.43;;;3.80;;
43835;SDS011;39345;43.964;25.340;2022-07-09T12:47:12;4.68;;;3.92;;
43835;SDS011;39345;43.964;25.340;2022-07-09T12:49:39;4.78;;;3.10;;
43835;SDS011;39345;43.964;25.340;2022-07-09T12:52:07;5.20;;;3.95;;
43835;SDS011;39345;43.964;25.340;2022-07-09T12:54:35;3.97;;;3.55;;
43835;SDS011;39345;43.964;25.340;2022-07-09T12:57:02;5.05;;;3.08;;
43835;SDS011;39345;43.964;25.340;2022-07-09T12:59:34;4.13;;;2.97;;
43835;SDS011;39345;43.964;25.340;2022-07-09T13:02:02;5.93;;;3.30;;
43835;SDS011;39345;43.964;25.340;2022-07-09T13:04:30;5.25;;;3.20;;
43835;SDS011;39345;43.964;25.340;2022-07-09T13:06:58;5.60;;;3.30;;
43835;SDS011;39345;43.964;25.340;2022-07-09T13:09:26;4.47;;;2.90;;
43835;SDS011;39345;43.964;25.340;2022-07-09T13:11:53;3.90;;;3.38;;
43835;SDS011;39345;43.964;25.340;2022-07-09T13:14:20;4.78;;;3.33;;
43835;SDS011;39345;43.964;25.340;2022-07-09T13:16:48;4.78;;;2.78;;
43835;SDS011;39345;43.964;25.340;2022-07-09T13:19:35;3.92;;;3.30;;
43835;SDS011;39345;43.964;25.340;2022-07-09T13:22:03;3.90;;;3.00;;
43835;SDS011;39345;43.964;25.340;2022-07-09T13:24:33;3.63;;;2.65;;
43835;SDS011;39345;43.964;25.340;2022-07-09T13:27:01;4.57;;;3.00;;
43835;SDS011;39345;43.964;25.340;2022-07-09T13:29:34;3.17;;;2.70;;
43835;SDS011;39345;43.964;25.340;2022-07-09T13:32:01;4.22;;;2.63;;
43835;SDS011;39345;43.964;25.340;2022-07-09T13:34:29;3.47;;;2.90;;
43835;SDS011;39345;43.964;25.340;2022-07-09T13:36:56;3.28;;;2.97;;
43835;SDS011;39345;43.964;25.340;2022-07-09T13:39:24;2.90;;;2.60;;
43835;SDS011;39345;43.964;25.340;2022-07-09T13:41:52;4.18;;;2.83;;
43835;SDS011;39345;43.964;25.340;2022-07-09T13:44:19;4.78;;;3.00;;
43835;SDS011;39345;43.964;25.340;2022-07-09T13:46:47;4.70;;;2.95;;
43835;SDS011;39345;43.964;25.340;2022-07-09T13:49:14;5.22;;;3.05;;
43835;SDS011;39345;43.964;25.340;2022-07-09T13:51:48;3.87;;;3.07;;
43835;SDS011;39345;43.964;25.340;2022-07-09T13:54:16;4.95;;;3.00;;
43835;SDS011;39345;43.964;25.340;2022-07-09T13:56:43;6.68;;;3.10;;
43835;SDS011;39345;43.964;25.340;2022-07-09T13:59:11;3.25;;;2.80;;
43835;SDS011;39345;43.964;25.340;2022-07-09T14:01:38;3.25;;;2.65;;
43835;SDS011;39345;43.964;25.340;2022-07-09T14:04:06;3.03;;;2.65;;
43835;SDS011;39345;43.964;25.340;2022-07-09T14:06:33;4.50;;;3.20;;
43835;SDS011;39345;43.964;25.340;2022-07-09T14:09:12;4.55;;;3.10;;
43835;SDS011;39345;43.964;25.340;2022-07-09T14:11:40;5.75;;;2.72;;
43835;SDS011;39345;43.964;25.340;2022-07-09T14:14:07;4.65;;;2.78;;
43835;SDS011;39345;43.964;25.340;2022-07-09T14:16:35;3.15;;;2.83;;
43835;SDS011;39345;43.964;25.340;2022-07-09T14:19:02;3.90;;;3.05;;
43835;SDS011;39345;43.964;25.340;2022-07-09T14:21:30;3.28;;;2.75;;
43835;SDS011;39345;43.964;25.340;2022-07-09T14:23:57;4.88;;;2.75;;
43835;SDS011;39345;43.964;25.340;2022-07-09T14:26:25;4.97;;;3.47;;
43835;SDS011;39345;43.964;25.340;2022-07-09T14:28:53;5.15;;;2.70;;
43835;SDS011;39345;43.964;25.340;2022-07-09T14:31:20;6.68;;;3.72;;
43835;SDS011;39345;43.964;25.340;2022-07-09T14:33:48;4.28;;;3.38;;
43835;SDS011;39345;43.964;25.340;2022-07-09T14:36:15;5.20;;;4.63;;
43835;SDS011;39345;43.964;25.340;2022-07-09T14:38:43;6.00;;;4.15;;
43835;SDS011;39345;43.964;25.340;2022-07-09T14:41:10;16.00;;;13.65;;
43835;SDS011;39345;43.964;25.340;2022-07-09T14:43:38;5.50;;;3.55;;
43835;SDS011;39345;43.964;25.340;2022-07-09T14:46:07;3.40;;;2.70;;
43835;SDS011;39345;43.964;25.340;2022-07-09T14:48:34;4.18;;;3.17;;
43835;SDS011;39345;43.964;25.340;2022-07-09T14:51:03;3.40;;;2.50;;